Time;durP1;ratioP1;P1;durP2;ratioP2;P2;SDS_P1;SDS_P2;PMS_P1;PMS_P2;Temp;Humidity;BMP_temperature;BMP_pressure;BME280_temperature;BME280_humidity;BME280_pressure;Samples;Min_cycle;Max_cycle;Signal;HPM_P1;HPM_P2
2022/07/04 00:00:01;;;;;;;1999.90;999.90;;;16.40;99.90;;;;;;4954162;28;20455;-72
2022/07/04 00:02:27;;;;;;;1999.90;999.90;;;16.40;99.90;;;;;;4953999;28;20754;-73
2022/07/04 00:04:52;;;;;;;1999.90;999.90;;;16.30;99.90;;;;;;4953979;29;21028;-73
2022/07/04 00:07:19;;;;;;;1999.90;999.90;;;16.30;99.90;;;;;;4953902;29;20182;-72
2022/07/04 00:09:44;;;;;;;1999.90;999.90;;;16.30;99.90;;;;;;4954335;28;20208;-72
2022/07/04 00:12:10;;;;;;;1999.90;999.90;;;16.30;99.90;;;;;;4954038;29;20414;-72
2022/07/04 00:14:36;;;;;;;1999.90;999.90;;;16.30;99.90;;;;;;4953922;28;20199;-72
2022/07/04 00:17:01;;;;;;;1999.90;999.90;;;16.30;99.90;;;;;;4953776;29;20652;-72
2022/07/04 00:19:27;;;;;;;1999.90;999.90;;;16.30;99.90;;;;;;4953929;29;20532;-72
2022/07/04 00:21:52;;;;;;;1999.90;999.90;;;16.30;99.90;;;;;;4953893;29;20681;-72
2022/07/04 00:24:18;;;;;;;1999.90;999.90;;;16.20;99.90;;;;;;4953827;28;20329;-72
2022/07/04 00:26:44;;;;;;;1999.90;999.90;;;16.10;99.90;;;;;;4953622;29;20201;-72
2022/07/04 00:29:09;;;;;;;1999.90;999.90;;;16.00;99.90;;;;;;4953857;29;20173;-72
2022/07/04 00:31:35;;;;;;;1999.90;999.90;;;15.90;99.90;;;;;;4953869;29;20548;-72
2022/07/04 00:34:01;;;;;;;1999.90;999.90;;;15.80;99.90;;;;;;4953722;28;20201;-72
2022/07/04 00:36:27;;;;;;;1999.90;999.90;;;15.70;99.90;;;;;;4953553;28;20252;-73
2022/07/04 00:38:52;;;;;;;1999.90;999.90;;;15.70;99.90;;;;;;4953765;29;20420;-72
2022/07/04 00:41:18;;;;;;;1999.90;999.90;;;15.70;99.90;;;;;;4955097;28;20288;-72
2022/07/04 00:43:58;;;;;;;1999.90;999.90;;;15.70;99.90;;;;;;4957604;28;20321;-72
2022/07/04 00:46:24;;;;;;;1999.90;999.90;;;15.70;99.90;;;;;;4957420;28;20406;-72
2022/07/04 00:48:50;;;;;;;1999.90;999.90;;;15.60;99.90;;;;;;4957531;29;21003;-72
2022/07/04 00:51:15;;;;;;;1999.90;999.90;;;15.80;99.90;;;;;;4957475;29;20174;-72
2022/07/04 00:53:41;;;;;;;1999.90;999.90;;;15.80;99.90;;;;;;4957447;28;20214;-72
2022/07/04 00:56:06;;;;;;;1999.90;999.90;;;15.70;99.90;;;;;;4957293;29;20254;-72
2022/07/04 00:58:33;;;;;;;1999.90;999.90;;;15.70;99.90;;;;;;4957387;29;20220;-72
2022/07/04 01:00:58;;;;;;;1999.90;999.90;;;15.80;99.90;;;;;;4957271;28;20249;-72
2022/07/04 01:03:24;;;;;;;1999.90;999.90;;;15.70;99.90;;;;;;4957254;28;20433;-72
2022/07/04 01:05:50;;;;;;;1999.90;999.90;;;15.70;99.90;;;;;;4957137;29;20174;-72
2022/07/04 01:08:16;;;;;;;1999.90;999.90;;;15.60;99.90;;;;;;4957227;28;20339;-72
2022/07/04 01:10:42;;;;;;;1999.90;999.90;;;15.60;99.90;;;;;;4957171;29;20458;-72
2022/07/04 01:13:07;;;;;;;1999.90;999.90;;;15.60;99.90;;;;;;4957035;28;20611;-72
2022/07/04 01:15:33;;;;;;;1999.90;999.90;;;15.50;99.90;;;;;;4957021;29;20174;-72
2022/07/04 01:17:59;;;;;;;1999.90;999.90;;;15.50;99.90;;;;;;4956964;28;20181;-72
2022/07/04 01:20:24;;;;;;;1999.90;999.90;;;15.40;99.90;;;;;;4956946;29;20609;-72
2022/07/04 01:22:50;;;;;;;1999.90;999.90;;;15.40;99.90;;;;;;4956869;28;20187;-72
2022/07/04 01:25:16;;;;;;;1999.90;999.90;;;15.40;99.90;;;;;;4957032;29;20261;-72
2022/07/04 01:27:41;;;;;;;1999.90;999.90;;;15.40;99.90;;;;;;4956580;29;20652;-72
2022/07/04 01:30:08;;;;;;;1999.90;999.90;;;15.40;99.90;;;;;;4956771;29;20222;-72
2022/07/04 01:32:34;;;;;;;1999.90;999.90;;;15.30;99.90;;;;;;4956763;28;20171;-72
2022/07/04 01:34:59;;;;;;;1999.90;999.90;;;15.30;99.90;;;;;;4956695;28;20907;-72
2022/07/04 01:37:25;;;;;;;1999.90;999.90;;;15.30;99.90;;;;;;4956492;29;20188;-72
2022/07/04 01:39:50;;;;;;;1999.90;999.90;;;15.20;99.90;;;;;;4956570;29;20170;-72
2022/07/04 01:42:16;;;;;;;1999.90;999.90;;;15.10;99.90;;;;;;4956583;29;20189;-72
2022/07/04 01:44:42;;;;;;;1999.90;999.90;;;15.20;99.90;;;;;;4956479;28;20665;-72
2022/07/04 01:47:07;;;;;;;1999.90;999.90;;;15.20;99.90;;;;;;4956263;29;20218;-72
2022/07/04 01:49:33;;;;;;;1999.90;999.90;;;15.00;99.90;;;;;;4956442;29;20634;-72
2022/07/04 01:51:58;;;;;;;1999.90;999.90;;;14.90;99.90;;;;;;4956170;28;20211;-72
2022/07/04 01:54:26;;;;;;;1999.90;999.90;;;14.90;99.90;;;;;;4956308;28;20238;-72
2022/07/04 01:56:51;;;;;;;1999.90;999.90;;;14.90;99.90;;;;;;4956075;28;20645;-72
2022/07/04 01:59:17;;;;;;;1999.90;999.90;;;14.90;99.90;;;;;;4956252;28;20420;-72
2022/07/04 02:01:43;;;;;;;1999.90;999.90;;;14.90;99.90;;;;;;4956098;29;20215;-72
2022/07/04 02:04:08;;;;;;;1999.90;999.90;;;15.00;99.90;;;;;;4956150;28;20214;-72
2022/07/04 02:06:34;;;;;;;1999.90;999.90;;;15.00;99.90;;;;;;4956031;28;20179;-72
2022/07/04 02:09:15;;;;;;;1999.90;999.90;;;15.00;99.90;;;;;;4956072;29;20540;-72
2022/07/04 02:14:26;;;;;;;1999.90;999.90;;;15.10;99.90;;;;;;4956026;28;20484;-72
2022/07/04 02:16:52;;;;;;;1999.90;999.90;;;15.00;99.90;;;;;;4955699;29;20512;-72
2022/07/04 02:19:17;;;;;;;1999.90;999.90;;;15.00;99.90;;;;;;4956000;29;20268;-72
2022/07/04 02:21:44;;;;;;;1999.90;999.90;;;15.00;99.90;;;;;;4955804;29;20249;-72
2022/07/04 02:24:10;;;;;;;1999.90;999.90;;;15.00;99.90;;;;;;4955802;28;20205;-72
2022/07/04 02:26:35;;;;;;;1999.90;999.90;;;15.00;99.90;;;;;;4955655;28;20458;-72
2022/07/04 02:29:01;;;;;;;1999.90;999.90;;;14.80;99.90;;;;;;4955843;29;20814;-72
2022/07/04 02:31:27;;;;;;;1999.90;999.90;;;14.80;99.90;;;;;;4955690;29;20180;-72
2022/07/04 02:33:52;;;;;;;1999.90;999.90;;;14.80;99.90;;;;;;4955630;28;20196;-72
2022/07/04 02:36:18;;;;;;;1999.90;999.90;;;14.70;99.90;;;;;;4955419;29;20192;-72
2022/07/04 02:38:43;;;;;;;1999.90;999.90;;;14.70;99.90;;;;;;4955612;29;20183;-72
2022/07/04 02:41:09;;;;;;;1999.90;999.90;;;14.70;99.90;;;;;;4955491;29;20218;-72
2022/07/04 02:43:34;;;;;;;1999.90;999.90;;;14.70;99.90;;;;;;4955437;28;20245;-72
2022/07/04 02:46:00;;;;;;;1999.90;999.90;;;14.70;99.90;;;;;;4955235;29;20556;-72
2022/07/04 02:48:26;;;;;;;1999.90;999.90;;;14.70;99.90;;;;;;4955393;29;20258;-72
2022/07/04 02:50:51;;;;;;;1999.90;999.90;;;14.80;99.90;;;;;;4955322;29;20588;-72
2022/07/04 02:53:17;;;;;;;1999.90;999.90;;;14.60;99.90;;;;;;4955278;28;20198;-72
2022/07/04 02:55:42;;;;;;;1999.90;999.90;;;14.50;99.90;;;;;;4955232;29;20190;-72
2022/07/04 02:58:08;;;;;;;1999.90;999.90;;;14.50;99.90;;;;;;4955085;29;20216;-72
2022/07/04 03:00:34;;;;;;;1999.90;999.90;;;14.60;99.90;;;;;;4955144;29;20661;-72
2022/07/04 03:02:59;;;;;;;1999.90;999.90;;;14.50;99.90;;;;;;4954835;28;20203;-72
2022/07/04 03:05:25;;;;;;;1999.90;999.90;;;14.50;99.90;;;;;;4954653;29;20176;-72
2022/07/04 03:07:50;;;;;;;1999.90;999.90;;;14.50;99.90;;;;;;4954891;29;20177;-73
2022/07/04 03:10:16;;;;;;;1999.90;999.90;;;14.40;99.90;;;;;;4955045;29;20190;-73
2022/07/04 03:12:42;;;;;;;1999.90;999.90;;;14.40;99.90;;;;;;4954905;28;20195;-73
2022/07/04 03:15:07;;;;;;;1999.90;999.90;;;14.30;99.90;;;;;;4954913;29;20181;-72
2022/07/04 03:17:33;;;;;;;1999.90;999.90;;;14.30;99.90;;;;;;4954615;28;20206;-72
2022/07/04 03:19:59;;;;;;;1999.90;999.90;;;14.20;99.90;;;;;;4955046;29;20495;-72
2022/07/04 03:22:25;;;;;;;1999.90;999.90;;;14.10;99.90;;;;;;4954855;28;20180;-72
2022/07/04 03:24:51;;;;;;;1999.90;999.90;;;14.10;99.90;;;;;;4954773;28;20277;-72
2022/07/04 03:27:16;;;;;;;1999.90;999.90;;;14.00;99.90;;;;;;4954709;29;20498;-72
2022/07/04 03:29:42;;;;;;;1999.90;999.90;;;14.00;99.90;;;;;;4954660;29;20661;-72
2022/07/04 03:32:08;;;;;;;1999.90;999.90;;;14.00;99.90;;;;;;4954653;29;20240;-72
2022/07/04 03:34:33;;;;;;;1999.90;999.90;;;14.00;99.90;;;;;;4954535;28;20675;-72
2022/07/04 03:36:59;;;;;;;1999.90;999.90;;;14.00;99.90;;;;;;4954313;29;20441;-72
2022/07/04 03:39:25;;;;;;;1999.90;999.90;;;13.90;99.90;;;;;;4954472;29;20176;-72
2022/07/04 03:41:50;;;;;;;1999.90;999.90;;;13.90;99.90;;;;;;4954360;29;20281;-72
2022/07/04 03:44:16;;;;;;;1999.90;999.90;;;13.80;99.90;;;;;;4954804;28;20202;-74
2022/07/04 03:46:42;;;;;;;1999.90;999.90;;;13.70;99.90;;;;;;4954116;29;20178;-72
2022/07/04 03:49:08;;;;;;;1999.90;999.90;;;13.60;99.90;;;;;;4954418;28;20805;-72
2022/07/04 03:51:34;;;;;;;1999.90;999.90;;;13.50;99.90;;;;;;4954343;29;20453;-72
2022/07/04 03:53:59;;;;;;;1999.90;999.90;;;13.40;99.90;;;;;;4954048;28;20209;-72
2022/07/04 03:56:25;;;;;;;1999.90;999.90;;;13.40;99.90;;;;;;4954101;29;20417;-72
2022/07/04 03:58:50;;;;;;;1999.90;999.90;;;13.40;99.90;;;;;;4954165;29;20193;-72
2022/07/04 04:01:17;;;;;;;1999.90;999.90;;;13.40;99.90;;;;;;4954032;29;20215;-72
2022/07/04 04:06:27;;;;;;;1999.90;999.90;;;13.50;99.90;;;;;;4953992;29;20458;-72
2022/07/04 04:08:53;;;;;;;1999.90;999.90;;;13.60;99.90;;;;;;4954081;28;20419;-72
2022/07/04 04:11:19;;;;;;;1999.90;999.90;;;13.70;99.90;;;;;;4954085;29;20887;-72
2022/07/04 04:13:44;;;;;;;1999.90;999.90;;;13.80;99.90;;;;;;4954046;28;20199;-72
2022/07/04 04:16:10;;;;;;;1999.90;999.90;;;13.80;99.90;;;;;;4953726;28;20551;-72
2022/07/04 04:18:35;;;;;;;1999.90;999.90;;;14.00;99.90;;;;;;4953924;29;20183;-72
2022/07/04 04:21:01;;;;;;;1999.90;999.90;;;14.10;99.90;;;;;;4953881;29;20277;-72
2022/07/04 04:23:26;;;;;;;1999.90;999.90;;;14.20;99.90;;;;;;4953871;28;20226;-72
2022/07/04 04:25:52;;;;;;;1999.90;999.90;;;14.30;99.90;;;;;;4953794;29;20202;-72
2022/07/04 04:28:18;;;;;;;1999.90;999.90;;;14.50;99.90;;;;;;4953723;29;20174;-72
2022/07/04 04:30:43;;;;;;;1999.90;999.90;;;14.60;99.90;;;;;;4953857;29;20175;-72
2022/07/04 04:33:09;;;;;;;1999.90;999.90;;;14.70;99.90;;;;;;4953795;28;20210;-75
2022/07/04 04:35:34;;;;;;;1999.90;999.90;;;14.80;99.90;;;;;;4953868;29;20599;-72
2022/07/04 04:38:00;;;;;;;1999.90;999.90;;;14.90;99.90;;;;;;4953576;29;20176;-72
2022/07/04 04:40:25;;;;;;;1999.90;999.90;;;15.00;99.90;;;;;;4953745;29;20198;-72
2022/07/04 04:42:51;;;;;;;1999.90;999.90;;;15.00;99.90;;;;;;4953582;28;20679;-72
2022/07/04 04:45:17;;;;;;;1999.90;999.90;;;15.10;99.90;;;;;;4953716;29;20208;-72
2022/07/04 04:47:43;;;;;;;1999.90;999.90;;;15.20;99.90;;;;;;4953391;29;20661;-71
2022/07/04 04:50:14;;;;;;;1999.90;999.90;;;15.10;99.90;;;;;;4953660;28;20178;-72
2022/07/04 04:52:40;;;;;;;1999.90;999.90;;;15.10;99.90;;;;;;4953673;28;20415;-71
2022/07/04 04:55:06;;;;;;;1999.90;999.90;;;15.10;99.90;;;;;;4953549;28;20449;-72
2022/07/04 04:57:32;;;;;;;1999.90;999.90;;;15.20;99.90;;;;;;4953330;28;20462;-72
2022/07/04 04:59:58;;;;;;;1999.90;999.90;;;15.20;99.90;;;;;;4953504;29;20448;-71
2022/07/04 05:02:23;;;;;;;1999.90;999.90;;;15.30;99.90;;;;;;4953502;28;20686;-72
2022/07/04 05:04:49;;;;;;;1999.90;999.90;;;15.30;99.90;;;;;;4953548;29;20231;-72
2022/07/04 05:07:15;;;;;;;1999.90;999.90;;;15.40;99.90;;;;;;4953310;29;20208;-72
2022/07/04 05:09:40;;;;;;;1999.90;999.90;;;15.50;99.90;;;;;;4953683;28;20661;-72
2022/07/04 05:12:06;;;;;;;1999.90;999.90;;;15.70;99.90;;;;;;4953904;29;20170;-72
2022/07/04 05:14:32;;;;;;;1999.90;999.90;;;15.70;99.90;;;;;;4953576;28;20206;-73
2022/07/04 05:16:58;;;;;;;1999.90;999.90;;;15.60;99.90;;;;;;4953349;29;20501;-72
2022/07/04 05:19:23;;;;;;;1999.90;999.90;;;15.60;99.90;;;;;;4953528;29;20181;-71
2022/07/04 05:21:49;;;;;;;1999.90;999.90;;;15.70;99.90;;;;;;4953390;29;20198;-71
2022/07/04 05:24:16;;;;;;;1999.90;999.90;;;15.70;99.90;;;;;;4953456;28;20276;-72
2022/07/04 05:26:42;;;;;;;1999.90;999.90;;;15.70;99.90;;;;;;4953596;28;20171;-71
2022/07/04 05:29:08;;;;;;;1999.90;999.90;;;15.70;99.90;;;;;;4956944;28;20958;-72
2022/07/04 05:31:33;;;;;;;1999.90;999.90;;;15.80;99.90;;;;;;4957139;29;20411;-72
2022/07/04 05:34:00;;;;;;;1999.90;999.90;;;15.80;99.90;;;;;;4956933;28;20217;-72
2022/07/04 05:36:26;;;;;;;1999.90;999.90;;;15.90;99.90;;;;;;4956820;28;20484;-72
2022/07/04 05:38:52;;;;;;;1999.90;999.90;;;16.00;99.90;;;;;;4955700;29;20417;-72
2022/07/04 05:41:18;;;;;;;1999.90;999.90;;;16.10;99.90;;;;;;4956789;29;20509;-72
2022/07/04 05:43:44;;;;;;;1999.90;999.90;;;16.20;99.90;;;;;;4956885;28;20963;-72
2022/07/04 05:46:10;;;;;;;1999.90;999.90;;;16.10;99.90;;;;;;4956413;28;20250;-72
2022/07/04 05:48:36;;;;;;;1999.90;999.90;;;16.20;99.90;;;;;;4956796;28;20426;-72
2022/07/04 05:51:03;;;;;;;1999.90;999.90;;;16.20;99.90;;;;;;4956869;29;20402;-72
2022/07/04 05:53:29;;;;;;;1999.90;999.90;;;16.20;99.90;;;;;;4956604;28;20431;-72
2022/07/04 05:55:55;;;;;;;1999.90;999.90;;;16.20;99.90;;;;;;4956383;28;20440;-72
2022/07/04 05:58:20;;;;;;;1999.90;999.90;;;16.30;99.90;;;;;;4956709;28;20253;-72
2022/07/04 06:00:46;;;;;;;1999.90;999.90;;;16.40;99.90;;;;;;4956991;29;20213;-72
2022/07/04 06:03:11;;;;;;;1999.90;999.90;;;16.50;99.90;;;;;;4956492;28;20198;-72
2022/07/04 06:05:37;;;;;;;1999.90;999.90;;;16.60;99.90;;;;;;4955396;29;20263;-73
2022/07/04 06:08:03;;;;;;;1999.90;999.90;;;16.70;99.90;;;;;;4956323;29;20682;-72
2022/07/04 06:10:29;;;;;;;1999.90;999.90;;;16.70;99.90;;;;;;4956784;28;20181;-72
2022/07/04 06:12:55;;;;;;;1999.90;999.90;;;16.80;99.90;;;;;;4956098;28;20514;-72
2022/07/04 06:15:20;;;;;;;1999.90;999.90;;;16.90;99.90;;;;;;4956418;29;20458;-72
2022/07/04 06:17:46;;;;;;;1999.90;999.90;;;17.00;99.90;;;;;;4955981;29;20519;-72
2022/07/04 06:20:12;;;;;;;1999.90;999.90;;;17.10;99.90;;;;;;4956718;29;20660;-72
2022/07/04 06:22:42;;;;;;;1999.90;999.90;;;17.20;99.90;;;;;;4956413;28;20163;-73
2022/07/04 06:25:12;;;;;;;1999.90;999.90;;;17.30;99.90;;;;;;4956434;28;20415;-72
2022/07/04 06:27:38;;;;;;;1999.90;999.90;;;17.40;99.90;;;;;;4955792;28;20494;-72
2022/07/04 06:30:05;;;;;;;1999.90;999.90;;;17.40;99.90;;;;;;4955812;28;20403;-72
2022/07/04 06:32:50;;;;;;;1999.90;999.90;;;17.50;99.90;;;;;;4955725;28;20207;-74
2022/07/04 06:35:45;;;;;;;1999.90;999.90;;;17.60;99.90;;;;;;4955629;28;20833;-73
2022/07/04 06:38:19;;;;;;;1999.90;999.90;;;17.60;99.90;;;;;;4954645;28;20407;-74
2022/07/04 06:40:45;;;;;;;1999.90;999.90;;;17.70;99.90;;;;;;4955392;28;20459;-74
2022/07/04 06:43:11;;;;;;;1999.90;999.90;;;17.80;99.90;;;;;;4955453;28;20426;-74
2022/07/04 06:45:37;;;;;;;1999.90;999.90;;;17.80;99.90;;;;;;4955433;28;20482;-73
2022/07/04 06:48:06;;;;;;;1999.90;999.90;;;17.90;99.90;;;;;;4955393;28;20411;-73
2022/07/04 06:50:33;;;;;;;1999.90;999.90;;;17.80;99.90;;;;;;4955718;28;20685;-73
2022/07/04 06:53:03;;;;;;;1999.90;999.90;;;17.90;99.90;;;;;;4955172;28;20849;-74
2022/07/04 06:55:37;;;;;;;1999.90;999.90;;;17.90;99.90;;;;;;4955229;28;20565;-73
2022/07/04 06:58:03;;;;;;;1999.90;999.90;;;18.00;99.90;;;;;;4954964;28;20412;-72
2022/07/04 07:00:32;;;;;;;1999.90;999.90;;;18.00;99.90;;;;;;4955091;28;20861;-73
2022/07/04 07:02:59;;;;;;;1999.90;999.90;;;18.10;99.90;;;;;;4955064;28;20438;-74
2022/07/04 07:05:25;;;;;;;1999.90;999.90;;;18.10;99.90;;;;;;4955023;28;20404;-74
2022/07/04 07:07:51;;;;;;;1999.90;999.90;;;18.30;99.90;;;;;;4954750;28;20410;-72
2022/07/04 07:10:17;;;;;;;1999.90;999.90;;;18.40;99.90;;;;;;4954981;29;20406;-72
2022/07/04 07:12:42;;;;;;;1999.90;999.90;;;18.50;99.90;;;;;;4954923;28;20252;-72
2022/07/04 07:15:08;;;;;;;1999.90;999.90;;;18.50;99.90;;;;;;4954907;29;20173;-72
2022/07/04 07:17:34;;;;;;;1999.90;999.90;;;18.60;99.90;;;;;;4954673;28;20183;-72
2022/07/04 07:20:00;;;;;;;1999.90;999.90;;;18.60;99.90;;;;;;4954786;29;20404;-72
2022/07/04 07:22:25;;;;;;;1999.90;999.90;;;18.70;99.90;;;;;;4954639;28;20659;-73
2022/07/04 07:24:51;;;;;;;1999.90;999.90;;;18.80;99.90;;;;;;4954681;29;20174;-72
2022/07/04 07:27:17;;;;;;;1999.90;999.90;;;18.90;99.90;;;;;;4954465;28;20172;-72
2022/07/04 07:29:43;;;;;;;1999.90;999.90;;;18.90;99.90;;;;;;4954678;28;20196;-72
2022/07/04 07:32:08;;;;;;;1999.90;999.90;;;19.10;99.90;;;;;;4954591;29;20414;-72
2022/07/04 07:34:35;;;;;;;1999.90;999.90;;;19.20;99.90;;;;;;4954452;28;20201;-72
2022/07/04 07:37:00;;;;;;;1999.90;999.90;;;19.10;99.90;;;;;;4954255;28;20178;-73
2022/07/04 07:39:26;;;;;;;1999.90;999.90;;;19.10;99.90;;;;;;4954453;28;20407;-73
2022/07/04 07:41:52;;;;;;;1999.90;999.90;;;19.20;99.90;;;;;;4954551;28;20688;-72
2022/07/04 07:44:18;;;;;;;1999.90;999.90;;;19.20;99.90;;;;;;4954429;28;20553;-73
2022/07/04 07:46:43;;;;;;;1999.90;999.90;;;19.20;99.90;;;;;;4954179;29;20242;-73
2022/07/04 07:49:09;;;;;;;1999.90;999.90;;;19.30;99.90;;;;;;4954381;28;20674;-73
2022/07/04 07:51:35;;;;;;;1999.90;999.90;;;19.30;99.90;;;;;;4954079;29;20399;-73
2022/07/04 07:54:01;;;;;;;1999.90;999.90;;;19.40;99.90;;;;;;4954279;28;20221;-72
2022/07/04 07:56:27;;;;;;;1999.90;999.90;;;19.50;99.90;;;;;;4954040;29;20185;-73
2022/07/04 07:58:52;;;;;;;1999.90;999.90;;;19.60;99.90;;;;;;4954315;28;20446;-72
2022/07/04 08:01:18;;;;;;;1999.90;999.90;;;19.60;99.90;;;;;;4954170;28;20469;-73
2022/07/04 08:06:28;;;;;;;1999.90;999.90;;;19.80;99.90;;;;;;4954089;29;20185;-72
2022/07/04 08:08:54;;;;;;;1999.90;999.90;;;19.80;99.90;;;;;;4953988;29;20819;-73
2022/07/04 08:11:20;;;;;;;1999.90;999.90;;;19.90;99.90;;;;;;4954088;29;20172;-73
2022/07/04 08:13:46;;;;;;;1999.90;999.90;;;20.00;99.90;;;;;;4954027;28;20690;-73
2022/07/04 08:16:12;;;;;;;1999.90;999.90;;;20.00;99.90;;;;;;4953810;28;20451;-73
2022/07/04 08:18:37;;;;;;;1999.90;999.90;;;20.00;99.90;;;;;;4953954;29;20513;-73
2022/07/04 08:21:04;;;;;;;1999.90;999.90;;;20.10;99.90;;;;;;4953899;29;20623;-73
2022/07/04 08:23:32;;;;;;;1999.90;999.90;;;20.10;99.90;;;;;;4953843;28;20194;-73
2022/07/04 08:25:58;;;;;;;1999.90;999.90;;;20.30;99.90;;;;;;4953790;28;20410;-73
2022/07/04 08:28:24;;;;;;;1999.90;999.90;;;20.30;99.90;;;;;;4953929;28;20414;-72
2022/07/04 08:30:50;;;;;;;1999.90;999.90;;;20.30;99.90;;;;;;4953837;28;20920;-73
2022/07/04 08:33:15;;;;;;;1999.90;999.90;;;20.40;99.90;;;;;;4953789;28;20434;-74
2022/07/04 08:35:41;;;;;;;1999.90;999.90;;;20.40;99.90;;;;;;4953756;29;20558;-74
2022/07/04 08:38:07;;;;;;;1999.90;999.90;;;20.40;99.90;;;;;;4953533;29;20175;-73
2022/07/04 08:40:33;;;;;;;1999.90;999.90;;;20.50;99.90;;;;;;4953668;29;20195;-74
2022/07/04 08:43:02;;;;;;;1999.90;999.90;;;20.50;99.90;;;;;;4953721;28;20711;-73
2022/07/04 08:45:30;;;;;;;1999.90;999.90;;;20.50;99.90;;;;;;4953620;28;20466;-74
2022/07/04 08:48:06;;;;;;;1999.90;999.90;;;20.60;99.90;;;;;;4953517;28;20423;-74
2022/07/04 08:50:34;;;;;;;1999.90;999.90;;;20.60;99.90;;;;;;4953739;28;20474;-74
2022/07/04 08:53:09;;;;;;;1999.90;999.90;;;20.70;99.90;;;;;;4953530;28;20445;-73
2022/07/04 08:58:26;;;;;;;1999.90;999.90;;;20.80;99.90;;;;;;4953734;29;20415;-73
2022/07/04 09:01:00;;;;;;;1999.90;999.90;;;20.90;99.90;;;;;;4954179;28;20816;-73
2022/07/04 09:03:26;;;;;;;1999.90;999.90;;;21.00;99.90;;;;;;4958599;28;21017;-74
2022/07/04 09:05:53;;;;;;;1999.90;999.90;;;21.10;99.90;;;;;;4958493;28;20413;-73
2022/07/04 09:08:19;;;;;;;1999.90;999.90;;;21.30;99.90;;;;;;4959128;28;20751;-73
2022/07/04 09:10:47;;;;;;;1999.90;999.90;;;21.30;99.90;;;;;;4958571;28;20539;-73
2022/07/04 09:13:19;;;;;;;1999.90;999.90;;;21.40;99.90;;;;;;4958274;28;20428;-73
2022/07/04 09:15:47;;;;;;;1999.90;999.90;;;21.60;99.90;;;;;;4958657;28;20478;-73
2022/07/04 09:18:22;;;;;;;1999.90;999.90;;;21.60;99.90;;;;;;4957690;28;20479;-73
2022/07/04 09:20:48;;;;;;;1999.90;999.90;;;21.70;99.90;;;;;;4958187;29;20431;-73
2022/07/04 09:23:27;;;;;;;1999.90;999.90;;;21.80;99.90;;;;;;4957799;28;20964;-73
2022/07/04 09:26:21;;;;;;;1999.90;999.90;;;21.90;99.90;;;;;;4957603;28;20173;-73
2022/07/04 09:28:52;;;;;;;1999.90;999.90;;;22.00;99.90;;;;;;4957986;28;20406;-73
2022/07/04 09:31:24;;;;;;;1999.90;999.90;;;22.10;99.90;;;;;;4958964;28;20973;-73
2022/07/04 09:33:56;;;;;;;1999.90;999.90;;;22.20;99.90;;;;;;4958323;28;20492;-73
2022/07/04 09:36:25;;;;;;;1999.90;999.90;;;22.40;99.90;;;;;;4957318;28;20425;-73
2022/07/04 09:39:17;;;;;;;1999.90;999.90;;;22.50;99.90;;;;;;4957011;28;20424;-73
2022/07/04 09:41:52;;;;;;;1999.90;999.90;;;22.40;99.90;;;;;;4957210;28;20444;-74
2022/07/04 09:44:18;;;;;;;1999.90;999.90;;;22.40;99.90;;;;;;5009169;23;20495;-69
2022/07/04 09:46:44;;;;;;;1999.90;999.90;;;22.60;99.90;;;;;;4975831;28;20423;-70
2022/07/04 09:49:13;;;;;;;1999.90;999.90;;;22.70;98.90;;;;;;4975873;28;20464;-70
2022/07/04 09:51:47;;;;;;;1999.90;999.90;;;22.80;99.90;;;;;;4975865;28;20194;-69
2022/07/04 09:54:18;;;;;;;1999.90;999.90;;;22.90;98.70;;;;;;4975656;28;20402;-70
2022/07/04 09:56:49;;;;;;;1999.90;999.90;;;22.90;97.90;;;;;;4975700;28;20383;-69
2022/07/04 09:59:15;;;;;;;1999.90;999.90;;;22.90;97.60;;;;;;4975723;28;20406;-69
2022/07/04 10:01:41;;;;;;;1999.90;999.90;;;23.00;97.30;;;;;;4975573;28;20506;-69
2022/07/04 10:04:08;;;;;;;1999.90;999.90;;;23.30;99.90;;;;;;4975502;28;20400;-69
2022/07/04 10:06:37;;;;;;;1999.90;999.90;;;23.40;99.00;;;;;;4975227;28;20177;-70
2022/07/04 10:09:16;;;;;;;1999.90;999.90;;;23.60;99.50;;;;;;4975491;28;20554;-70
2022/07/04 10:11:43;;;;;;;1999.90;999.90;;;23.90;96.20;;;;;;4975523;28;20384;-70
2022/07/04 10:14:11;;;;;;;1999.90;999.90;;;23.80;91.10;;;;;;4975175;28;20429;-70
2022/07/04 10:16:38;;;;;;;1999.90;999.90;;;23.70;89.60;;;;;;4975168;28;20395;-70
2022/07/04 10:19:05;;;;;;;1999.90;999.90;;;23.80;91.00;;;;;;4975126;28;20388;-70
2022/07/04 10:21:31;;;;;;;1999.90;999.90;;;24.00;87.40;;;;;;4975060;28;20508;-70
2022/07/04 10:23:58;;;;;;;1999.90;999.90;;;24.00;88.10;;;;;;4974133;28;20407;-70
2022/07/04 10:26:24;;;;;;;1999.90;999.90;;;24.00;86.80;;;;;;4974831;28;20441;-70
2022/07/04 10:28:52;;;;;;;1999.90;999.90;;;24.20;83.00;;;;;;4974837;28;20899;-71
2022/07/04 10:31:23;;;;;;;1999.90;999.90;;;24.30;82.00;;;;;;4975038;28;20410;-70
2022/07/04 10:33:49;;;;;;;1999.90;999.90;;;24.30;79.30;;;;;;4974917;28;20923;-70
2022/07/04 10:36:20;;;;;;;1999.90;999.90;;;24.30;83.40;;;;;;4974654;28;20443;-70
2022/07/04 10:38:48;;;;;;;1999.90;999.90;;;24.30;82.60;;;;;;4974925;28;20465;-70
2022/07/04 10:41:15;;;;;;;1999.90;999.90;;;24.50;82.50;;;;;;4969340;28;20462;-71
2022/07/04 10:44:06;;;;;;;1999.90;999.90;;;24.70;76.50;;;;;;4955324;28;20450;-71
2022/07/04 10:46:37;;;;;;;1999.90;999.90;;;24.30;74.20;;;;;;4955326;28;20390;-70
2022/07/04 10:49:16;;;;;;;1999.90;999.90;;;23.60;77.10;;;;;;4955494;28;20566;-70
2022/07/04 10:51:43;;;;;;;1999.90;999.90;;;23.10;80.30;;;;;;4955416;28;20378;-70
2022/07/04 10:54:13;;;;;;;1999.90;999.90;;;23.10;86.10;;;;;;4955356;28;20498;-70
2022/07/04 10:56:49;;;;;;;1999.90;999.90;;;23.40;86.40;;;;;;4954982;28;20414;-70
2022/07/04 10:59:20;;;;;;;1999.90;999.90;;;23.60;84.60;;;;;;4955260;28;20502;-70
2022/07/04 11:02:09;;;;;;;1999.90;999.90;;;23.50;82.40;;;;;;4955289;28;20434;-70
2022/07/04 11:04:55;;;;;;;1999.90;999.90;;;23.60;84.20;;;;;;4955710;28;20428;-70
2022/07/04 11:07:41;;;;;;;1999.90;999.90;;;24.00;82.10;;;;;;4955278;28;20469;-70
2022/07/04 11:10:12;;;;;;;1999.90;999.90;;;24.10;75.90;;;;;;4948613;28;20492;-70
2022/07/04 11:12:53;;;;;;;1999.90;999.90;;;24.00;77.40;;;;;;4955550;28;20899;-70
2022/07/04 11:15:25;;;;;;;1999.90;999.90;;;24.20;73.70;;;;;;4955060;28;20389;-70
2022/07/04 11:17:52;;;;;;;1999.90;999.90;;;24.30;79.90;;;;;;4954640;28;21108;-70
2022/07/04 11:20:22;;;;;;;1999.90;999.90;;;24.70;79.50;;;;;;4954823;28;20465;-70
2022/07/04 11:22:47;;;;;;;1999.90;999.90;;;25.10;67.30;;;;;;4954770;28;20402;-70
2022/07/04 11:25:13;;;;;;;1999.90;999.90;;;25.00;63.00;;;;;;4954295;28;20549;-70
2022/07/04 11:27:40;;;;;;;1999.90;999.90;;;24.60;55.80;;;;;;4954435;28;20199;-70
2022/07/04 11:30:06;;;;;;;1999.90;999.90;;;24.50;61.20;;;;;;4954731;28;20421;-70
2022/07/04 11:32:34;;;;;;;1999.90;999.90;;;24.70;62.10;;;;;;4954713;28;20762;-70
2022/07/04 11:35:00;;;;;;;1999.90;999.90;;;25.10;60.20;;;;;;4954453;28;20422;-71
2022/07/04 11:37:25;;;;;;;1999.90;999.90;;;25.30;56.30;;;;;;4954374;28;20389;-71
2022/07/04 11:39:52;;;;;;;1999.90;999.90;;;25.70;55.50;;;;;;4954638;28;20417;-71
2022/07/04 11:45:05;;;;;;;1999.90;999.90;;;25.80;51.80;;;;;;4954523;29;20473;-70
2022/07/04 11:47:40;;;;;;;1999.90;999.90;;;26.00;51.00;;;;;;4954220;28;20386;-71
2022/07/04 11:50:11;;;;;;;1999.90;999.90;;;26.10;48.00;;;;;;4954430;28;20509;-69
2022/07/04 11:52:36;;;;;;;1999.90;999.90;;;26.30;46.90;;;;;;4954426;28;20411;-70
2022/07/04 11:55:03;;;;;;;1999.90;999.90;;;26.40;43.50;;;;;;4954259;28;20433;-71
2022/07/04 11:57:34;;;;;;;1999.90;999.90;;;26.80;43.20;;;;;;4954113;28;20258;-71
2022/07/04 12:00:20;;;;;;;1999.90;999.90;;;27.10;45.00;;;;;;4954243;28;20473;-71
2022/07/04 12:02:49;;;;;;;1999.90;999.90;;;27.50;43.30;;;;;;4954288;28;20749;-71
2022/07/04 12:05:16;;;;;;;1999.90;999.90;;;27.30;37.70;;;;;;4954137;28;20468;-70
2022/07/04 12:07:43;;;;;;;1999.90;999.90;;;26.90;37.20;;;;;;4953724;28;20793;-70
2022/07/04 12:10:16;;;;;;;1999.90;999.90;;;26.80;36.50;;;;;;4953745;28;20834;-70
2022/07/04 12:12:54;;;;;;;1999.90;999.90;;;27.20;34.40;;;;;;4953908;28;20412;-70